North Sutton, New Hampshire
Current Conditions -  °F | °C
As of 5:24 AM on Tuesday 27 Jan 2015 (Local Time) from KCON Reporting Station
Moderate Snow Moderate Snow  
Wind Chill:   Ceiling: 900
Heat Index: 14°   Visibility: 0.5mi
Dew Point:   Wind: 13mph
Humidity: 80%   Direction: 360°N
Pressure: 29.76"   Gusts: 26mph
Location:  43.37°N, 71.94°W
Report Text: KCON 271024Z AUTO 36011G23KT 1/2SM SN VV009 M10/M13 A2976 RMK AO2 PK WND 35026/1007 P0003 T11001128
Loading
Personal Weather Stations






























Interactive Weather Map New forecast layout! Learn more

10-Day Weather Forecast

Advertisements
Track Severe Weather on mobile